АЭРОДРОМУУД

ICAO:
ZMUB
Нэр:
УЛААНБААТАР / БУЯНТ-УХАА
Ахц:
475033N 1064603E
011016 ZMUBYNYX
(C0432/20 NOTAMR C0431/20
Q) ZMUB/QKKKK/K /K /K /000/999/4752N10350E999
A) ZMUB B) 2012011016 C) 2101010700 EST
E) CHECKLIST YEAR=2020 0352 0410 0411 0412 0414 0420 0421 0422 0423 0424 LATEST PUBLICATIONS: AIP AMDT: 05/20 PUBLICATION DATE 19 NOV 2020 AIRAC AIP AMDT: 08/20 WEF 05NOV 2020 AIC (SERIES C): 03/20 PUBLICATION DATE 20 JUL 2020 AIP SUP: 08/20 PUBLICATION DATE 19 NOV 2020 AIRAC AIP SUP: 01/18 WEF 21 JUN 2018 AIP DATA SET: AIPZM-AMDT03-20 WEF 19 NOV 2020 OBST DATA SET: O-AREA1ZM200618 WEF 18 JUN 2020 O-AREA2ZMCK200618 WEF 18 JUN 2020 O-AREA2ZMUB200730 WEF 10 SEP 2020 O-AREA3ZMCK200618 WEF 18 JUN 2020 O-AREA3ZMUB200618 WEF 18 JUN 2020 TERRAIN DATA SET:T-AREA1ZM200618 WEF 18 JUN 2020 T-AREA2ZMCK200618 WEF 18 JUN 2020 T-AREA2ZMUB200618 WEF 18 JUN 2020 T-AREA3ZMCK200618 WEF 18 JUN 2020 T-AREA3ZMUB200618 WEF 18 JUN 2020 AD MAPPING DATA SET: AMDBZMCK200618 WEF 18 JUN 2020 AMDBZMUB200618 WEF 18 JUN 2020 AMDBZMDZ200618 WEF 18 JUN 2020 IFP DATA SET: IFPZM20 WEF 10 SEP 2020 AIP SUP CHECKLIST: AIP SUP: 01/20, 02/20, 05/20, 06/20, 07/20, 08/20 AIRAC AIP SUP: 01/18 AIC CHECKLIST: AIC (SERIES C): 02/08, 02/20, 03/20))
- 11 hours ago -

011011 ZMUBYNYX
(A0715/20 NOTAMR A0712/20
Q) ZMUB/QKKKK/K /K /K /000/999/4752N10350E999
A) ZMUB B) 2012011011 C) 2101010700 EST
E) CHECKLIST YEAR=2019 0246 YEAR=2020 0595 0607 0611 0625 0677 0690 0695 0696 0697 0698 0699 0700 0701 0702 0703 0704 0705 0706 0714 LATEST PUBLICATIONS: AIP AMDT: 05/20 PUBLICATION DATE 19 NOV 2020 AIRAC AIP AMDT: 08/20 WEF 05 NOV 2020 AIC (SERIES A): 06/20 PUBLICATION DATE 13 AUG 2020 AIP SUP: 08/20 PUBLICATION DATE 19 NOV 2020 AIRAC AIP SUP: 01/18 WEF 21 JUN 2018 AIP DATA SET: AIPZM-AMDT03-20 WEF 19 NOV 2020 OBST DATA SET: O-AREA1ZM200618 WEF 18 JUN 2020 O-AREA2ZMCK200618 WEF 18 JUN 2020 O-AREA2ZMUB200730 WEF 10 SEP 2020 O-AREA3ZMCK200618 WEF 18 JUN 2020 O-AREA3ZMUB200618 WEF 18 JUN 2020 TERRAIN DATA SET:T-AREA1ZM200618 WEF 18 JUN 2020 T-AREA2ZMCK200618 WEF 18 JUN 2020 T-AREA2ZMUB200618 WEF 18 JUN 2020 T-AREA3ZMCK200618 WEF 18 JUN 2020 T-AREA3ZMUB200618 WEF 18 JUN 2020 AD MAPPING DATA SET: AMDBZMCK200618 WEF 18 JUN 2020 AMDBZMUB200618 WEF 18 JUN 2020 AMDBZMDZ200618 WEF 18 JUN 2020 IFP DATA SET: IFPZM20 WEF 10 SEP 2020 AIP SUP CHECKLIST: AIP SUP: 01/20, 02/20, 05/20, 06/20, 07/20, 08/20 AIRAC AIP SUP: 01/18 AIC CHECKLIST: AIC (SERIES A): 02/17, 04/17, 03/20, 05/20, 06/20))
- 11 hours ago -

300552 ZMUBYNYX
(A0698/20 NOTAMR A0656/20
Q) ZMUB/QFAXX/IV/NBO/A /000/999/4750N10646E005
A) ZMUB B) 2011300552 C) 2012102200
E) AD CLSD FOR DOM SKED FLT.)
- 2 days ago -

300522 ZMUBYNYX
(A0697/20 NOTAMR A0685/20
Q) ZMUB/QMXLC/IV/M /A /000/999/4750N10646E005
A) ZMUB B) 2011300522 C) 2012150800
E) TWY 1 AND TWY 2 CLSD DUE TO SNOW.)
- 2 days ago -

300520 ZMUBYNYX
(A0696/20 NOTAMR A0684/20
Q) ZMUB/QMRLC/IV/NBO/A /000/999/4750N10646E005
A) ZMUB B) 2011300520 C) 2012150800
E) RWY 15/33 CLSD DUE TO SNOW. )
- 2 days ago -

300206 ZMUBYNYX
(A0695/20 NOTAMN
Q) ZMUB/QFAXX/IV/NBO/A /000/999/4750N10646E005
A) ZMUB B) 2011301600 C) PERM
E) VALIDITY OF AD CERTIFICATE EXTENDED TO 1600 UTC 30 NOV 2021 REF AIP MONGOLIA AD 1.5)
- 2 days ago -

252306 ZMUBYNYX
(A0690/20 NOTAMR A0674/20
Q) ZMUB/QLPAS/IV/BO /A /000/999/4750N10646E005
A) ZMUB B) 2011252306 C) 2012030100
E) PAPI FOR RWY 14 U/S.)
- 6 days ago -

310753 ZMUBYNYX
(A0611/20 NOTAMR A0547/20
Q) ZMUB/QFAXX/IV/NBO/A /000/999/4750N10646E005
A) ZMUB B) 2010310753 C) 2012311600
E) AD CLSD FOR INTL SKED FLT DUE TO COVID-19 INFECTION PREVENTION.)
- 1 month ago -

METAR
No records found.
TAF
TAF ZMUB 011630Z 0118/0224 VRB02MPS 6000 SCT100 TNM30/0123Z TXM18/0207Z=
- 5 hours ago -

TAF ZMUB 011030Z 0112/0218 VRB02MPS 6000 SCT100 TNM30/0123Z TXM18/0207Z=
- 11 hours ago -

TAF ZMUB 010435Z 0106/0212 VRB02MPS 6000 SCT100 TXM20/0107Z TNM30/0123Z=
- 17 hours ago -